Time;durP1;ratioP1;P1;durP2;ratioP2;P2;SDS_P1;SDS_P2;PMS_P1;PMS_P2;Temp;Humidity;BMP_temperature;BMP_pressure;BME280_temperature;BME280_humidity;BME280_pressure;Samples;Min_cycle;Max_cycle;Signal;HPM_P1;HPM_P2
2022/06/12 00:27:07;;;;;;;7.82;5.05;;;;;;;18.25;61.73;99451.38;2618116;54;20127;-66
2022/06/12 00:29:39;;;;;;;7.30;5.07;;;;;;;18.05;62.38;99448.97;2618138;47;20031;-66
2022/06/12 00:32:12;;;;;;;6.78;4.72;;;;;;;17.87;62.92;99451.66;2617839;54;20030;-66
2022/06/12 00:34:45;;;;;;;6.00;4.27;;;;;;;17.73;63.03;99454.44;2618700;54;20038;-67
2022/06/12 00:37:17;;;;;;;4.43;4.03;;;;;;;17.68;63.09;99448.97;2618734;54;20030;-66
2022/06/12 00:39:49;;;;;;;5.85;4.63;;;;;;;17.62;63.50;99446.34;2620106;54;20060;-66
2022/06/12 00:42:28;;;;;;;4.82;4.10;;;;;;;17.57;63.65;99447.84;2619259;51;20023;-66
2022/06/12 00:45:01;;;;;;;6.28;4.80;;;;;;;17.49;64.44;99456.16;2619556;54;20037;-66
2022/06/12 00:47:30;;;;;;;4.85;4.22;;;;;;;17.43;64.07;99450.84;2619797;46;20057;-66
2022/06/12 00:50:05;;;;;;;5.05;4.10;;;;;;;17.47;64.53;99452.06;2619420;54;20038;-67
2022/06/12 00:52:38;;;;;;;6.18;4.55;;;;;;;17.36;64.51;99447.47;2619770;54;20030;-64
2022/06/12 00:55:14;;;;;;;3.97;3.58;;;;;;;17.22;64.65;99449.41;2620192;54;20543;-67
2022/06/12 00:57:47;;;;;;;5.55;4.60;;;;;;;17.27;64.84;99442.41;2619530;47;20038;-68
2022/06/12 01:00:18;;;;;;;4.88;4.15;;;;;;;17.26;64.87;99442.59;2619409;54;20034;-66
2022/06/12 01:02:47;;;;;;;5.05;3.40;;;;;;;17.25;64.42;99446.31;2620011;47;20035;-65
2022/06/12 01:08:04;;;;;;;6.13;3.92;;;;;;;17.03;65.16;99445.91;2619257;54;20022;-65
2022/06/12 01:10:34;;;;;;;8.10;3.85;;;;;;;17.05;65.27;99451.84;2619911;54;20034;-65
2022/06/12 01:13:09;;;;;;;5.32;3.65;;;;;;;17.05;65.19;99447.31;2620189;54;20082;-65
2022/06/12 01:15:43;;;;;;;6.45;4.40;;;;;;;17.01;65.59;99446.09;2619912;54;20031;-65
2022/06/12 01:18:16;;;;;;;5.30;4.00;;;;;;;16.99;65.68;99442.03;2618381;54;20026;-65
2022/06/12 01:20:57;;;;;;;5.18;3.70;;;;;;;17.03;65.48;99433.38;2618377;54;20037;-65
2022/06/12 01:23:54;;;;;;;4.60;3.78;;;;;;;17.08;65.42;99443.38;2618466;54;20019;-66
2022/06/12 01:26:46;;;;;;;3.80;3.40;;;;;;;17.20;65.09;99443.50;2618419;54;20038;-65
2022/06/12 01:29:28;;;;;;;8.68;4.90;;;;;;;17.26;65.21;99447.94;2618196;54;20584;-65
2022/06/12 01:32:04;;;;;;;5.43;4.50;;;;;;;17.07;65.47;99449.78;2617330;47;20031;-66
2022/06/12 01:34:39;;;;;;;6.68;4.30;;;;;;;17.10;65.36;99451.97;2618332;54;20035;-64
2022/06/12 01:37:22;;;;;;;5.50;4.80;;;;;;;17.10;65.43;99460.00;2618630;54;20066;-65
2022/06/12 01:40:02;;;;;;;5.57;4.45;;;;;;;17.00;65.81;99470.38;2619504;54;20039;-65
2022/06/12 01:42:39;;;;;;;5.80;4.25;;;;;;;17.08;65.81;99462.09;2618507;54;20045;-65
2022/06/12 01:45:20;;;;;;;4.65;4.05;;;;;;;17.18;65.52;99461.59;2618921;54;20082;-66
2022/06/12 01:47:58;;;;;;;4.53;4.03;;;;;;;17.18;65.35;99453.56;2619049;54;20162;-65
2022/06/12 01:50:35;;;;;;;8.75;4.47;;;;;;;17.02;65.59;99460.28;2619174;54;20033;-67
2022/06/12 01:53:14;;;;;;;8.02;4.50;;;;;;;16.96;65.94;99461.16;2619101;54;20065;-65
2022/06/12 01:55:50;;;;;;;4.93;4.40;;;;;;;16.92;66.11;99459.97;2619632;54;20026;-67
2022/06/12 01:58:29;;;;;;;5.13;3.90;;;;;;;16.87;66.52;99459.81;2619575;54;20027;-66
2022/06/12 02:01:08;;;;;;;6.65;4.50;;;;;;;16.93;66.32;99456.25;2619993;54;20027;-65
2022/06/12 02:03:46;;;;;;;4.20;3.80;;;;;;;17.01;66.22;99451.44;2620340;54;20054;-66
2022/06/12 02:06:21;;;;;;;6.93;4.93;;;;;;;17.09;65.42;99451.19;2620338;54;20029;-66
2022/06/12 02:08:56;;;;;;;5.55;4.57;;;;;;;16.95;65.77;99451.53;2620457;54;20034;-66
2022/06/12 02:14:19;;;;;;;5.82;3.97;;;;;;;16.72;66.45;99444.88;2620854;54;20129;-65
2022/06/12 02:16:56;;;;;;;7.78;4.20;;;;;;;16.58;66.61;99449.50;2620651;54;20031;-67
2022/06/12 02:19:29;;;;;;;6.38;4.55;;;;;;;16.62;66.55;99438.41;2620338;46;20053;-66
2022/06/12 02:22:05;;;;;;;5.00;4.50;;;;;;;16.60;66.44;99436.75;2622629;54;20590;-65
2022/06/12 02:24:42;;;;;;;6.15;4.78;;;;;;;16.54;66.65;99442.97;2623931;54;20026;-65
2022/06/12 02:27:15;;;;;;;6.35;4.55;;;;;;;16.47;66.55;99444.03;2623997;46;20058;-65
2022/06/12 02:29:48;;;;;;;4.68;4.25;;;;;;;16.43;66.84;99440.97;2624045;54;20037;-65
2022/06/12 02:32:27;;;;;;;6.35;5.10;;;;;;;16.38;67.14;99440.81;2622877;39;20407;-66
2022/06/12 02:35:00;;;;;;;8.13;4.85;;;;;;;16.39;67.00;99442.44;2622515;54;20034;-67
2022/06/12 02:37:36;;;;;;;6.60;4.65;;;;;;;16.37;67.18;99441.00;2621999;54;20570;-66
2022/06/12 02:40:12;;;;;;;4.45;4.05;;;;;;;16.35;67.31;99441.22;2621327;54;20035;-66
2022/06/12 02:42:46;;;;;;;6.80;4.68;;;;;;;16.30;66.93;99444.53;2621445;54;20061;-65
2022/06/12 02:45:21;;;;;;;4.68;4.28;;;;;;;16.24;67.18;99444.56;2621550;54;20041;-66
2022/06/12 02:47:54;;;;;;;6.22;4.45;;;;;;;16.14;67.49;99445.03;2621185;39;20411;-66
2022/06/12 02:50:28;;;;;;;4.80;3.60;;;;;;;16.18;67.89;99448.91;2621454;54;20046;-66
2022/06/12 02:53:09;;;;;;;5.28;4.15;;;;;;;16.19;68.05;99444.38;2621718;54;20029;-65
2022/06/12 02:55:45;;;;;;;5.65;3.45;;;;;;;16.14;67.74;99434.38;2622043;54;20033;-67
2022/06/12 02:58:21;;;;;;;7.68;4.50;;;;;;;16.13;67.96;99442.59;2623212;54;20029;-67
2022/06/12 03:00:55;;;;;;;7.38;3.92;;;;;;;16.04;68.58;99447.31;2623298;54;20049;-65
2022/06/12 03:03:32;;;;;;;5.93;4.53;;;;;;;16.11;67.88;99442.78;2623437;54;20045;-66
2022/06/12 03:06:03;;;;;;;6.10;4.38;;;;;;;16.03;67.78;99443.03;2623177;54;20038;-67
2022/06/12 03:08:37;;;;;;;4.35;3.63;;;;;;;15.97;68.52;99447.38;2620382;47;20057;-66
2022/06/12 03:11:13;;;;;;;4.82;3.90;;;;;;;15.94;68.66;99450.44;2621779;54;20031;-66
2022/06/12 03:13:43;;;;;;;4.72;4.20;;;;;;;16.01;68.61;99445.09;2622305;54;20026;-66
2022/06/12 03:16:16;;;;;;;4.75;3.78;;;;;;;15.99;68.36;99447.16;2621489;47;20030;-66
2022/06/12 03:18:54;;;;;;;4.63;4.20;;;;;;;16.02;68.20;99454.72;2622712;54;20042;-65
2022/06/12 03:21:31;;;;;;;6.20;4.10;;;;;;;16.05;68.28;99459.66;2622959;54;20036;-66
2022/06/12 03:24:12;;;;;;;9.60;4.70;;;;;;;16.06;68.44;99466.63;2622421;47;20053;-66
2022/06/12 03:26:51;;;;;;;5.43;4.50;;;;;;;16.14;68.47;99470.91;2622030;39;20395;-69
2022/06/12 03:29:28;;;;;;;5.47;3.90;;;;;;;16.17;68.49;99471.28;2619911;54;20027;-66
2022/06/12 03:32:04;;;;;;;5.35;4.60;;;;;;;16.33;68.24;99468.13;2620096;54;20069;-66
2022/06/12 03:34:45;;;;;;;6.28;4.50;;;;;;;16.38;67.47;99474.69;2620983;39;20525;-66
2022/06/12 03:37:24;;;;;;;6.53;4.65;;;;;;;16.31;67.76;99472.03;2620336;39;20493;-65
2022/06/12 03:40:04;;;;;;;5.05;4.38;;;;;;;16.25;67.95;99475.56;2619717;54;20038;-66
2022/06/12 03:42:38;;;;;;;6.85;4.68;;;;;;;16.33;67.86;99478.00;2619136;54;20030;-65
2022/06/12 03:45:12;;;;;;;5.10;4.60;;;;;;;16.30;67.23;99483.75;2619724;54;20078;-66
2022/06/12 03:47:51;;;;;;;5.85;4.30;;;;;;;16.27;67.40;99486.81;2618794;54;20035;-66
2022/06/12 03:50:32;;;;;;;5.32;4.18;;;;;;;16.29;67.69;99482.13;2618670;54;20027;-65
2022/06/12 03:53:11;;;;;;;4.20;3.85;;;;;;;16.19;68.37;99482.53;2618566;54;20058;-66
2022/06/12 03:58:36;;;;;;;5.57;4.50;;;;;;;16.36;67.77;99482.88;2617868;47;20023;-66
2022/06/12 04:01:06;;;;;;;4.82;4.30;;;;;;;16.38;67.80;99480.81;2618145;54;20041;-66
2022/06/12 04:03:40;;;;;;;5.18;4.40;;;;;;;16.40;67.64;99480.59;2618487;54;20033;-66
2022/06/12 04:06:17;;;;;;;5.75;4.65;;;;;;;16.31;67.50;99474.69;2618454;54;20042;-67
2022/06/12 04:08:51;;;;;;;5.22;4.82;;;;;;;16.19;67.72;99479.88;2618378;54;20033;-66
2022/06/12 04:11:24;;;;;;;6.30;4.25;;;;;;;16.12;67.71;99484.41;2618306;54;20041;-66
2022/06/12 04:13:55;;;;;;;4.55;4.15;;;;;;;16.12;67.96;99481.75;2618425;54;20026;-65
2022/06/12 04:16:28;;;;;;;5.85;4.20;;;;;;;16.18;67.76;99485.44;2619928;39;20437;-66
2022/06/12 04:18:58;;;;;;;6.53;4.60;;;;;;;16.15;67.33;99484.00;2619390;54;20026;-66
2022/06/12 04:21:36;;;;;;;6.97;4.22;;;;;;;16.21;67.69;99490.34;2618549;54;20590;-66
2022/06/12 04:24:14;;;;;;;5.88;4.00;;;;;;;16.23;67.54;99486.44;2618447;54;20593;-66
2022/06/12 04:26:48;;;;;;;5.38;4.32;;;;;;;16.24;67.20;99490.72;2618917;54;20838;-65
2022/06/12 04:29:27;;;;;;;7.07;4.43;;;;;;;16.20;67.31;99491.38;2618307;54;20027;-66
2022/06/12 04:32:01;;;;;;;7.20;4.35;;;;;;;16.27;67.42;99500.97;2618120;54;20022;-66
2022/06/12 04:34:33;;;;;;;5.15;3.88;;;;;;;16.34;67.22;99499.09;2618317;54;20085;-67
2022/06/12 04:37:13;;;;;;;4.47;4.07;;;;;;;16.45;66.93;99499.44;2618287;54;20538;-67
2022/06/12 04:39:44;;;;;;;6.10;4.10;;;;;;;16.55;66.93;99491.81;2618270;54;20591;-67
2022/06/12 04:42:15;;;;;;;4.97;4.20;;;;;;;16.67;66.55;99491.94;2618284;54;20287;-66
2022/06/12 04:44:45;;;;;;;4.35;3.80;;;;;;;16.75;66.53;99503.22;2618246;54;20554;-66
2022/06/12 04:47:17;;;;;;;4.30;3.83;;;;;;;16.89;66.00;99509.28;2620456;47;20047;-67
2022/06/12 04:49:49;;;;;;;8.50;3.55;;;;;;;17.00;65.42;99510.44;2622433;54;20035;-66
2022/06/12 04:52:21;;;;;;;4.13;3.72;;;;;;;17.01;65.11;99502.19;2618108;39;20447;-66
2022/06/12 04:54:52;;;;;;;4.97;3.55;;;;;;;17.05;65.20;99503.41;2618287;54;20027;-65
2022/06/12 04:57:25;;;;;;;4.72;3.92;;;;;;;17.14;64.85;99506.63;2618389;54;20107;-65
2022/06/12 04:59:55;;;;;;;3.95;3.58;;;;;;;17.17;65.18;99500.84;2618155;54;20026;-66
2022/06/12 05:02:25;;;;;;;4.25;3.85;;;;;;;17.25;64.88;99511.25;2617724;47;20027;-65
2022/06/12 05:04:55;;;;;;;4.22;3.70;;;;;;;17.38;64.72;99491.59;2617630;54;20026;-66
2022/06/12 05:07:27;;;;;;;5.40;3.60;;;;;;;17.51;64.39;99504.03;2618212;54;20038;-66
2022/06/12 05:09:57;;;;;;;4.97;4.18;;;;;;;17.60;63.48;99494.72;2617793;47;20027;-66
2022/06/12 05:12:27;;;;;;;3.95;3.55;;;;;;;17.53;63.60;99496.63;2618276;54;20030;-66
2022/06/12 05:14:56;;;;;;;6.55;4.45;;;;;;;17.59;64.07;99487.69;2618820;54;20027;-66
2022/06/12 05:17:27;;;;;;;5.88;4.20;;;;;;;17.73;63.11;99489.22;2618625;54;20038;-66
2022/06/12 05:19:56;;;;;;;4.55;4.00;;;;;;;17.96;63.31;99487.75;2618988;54;20023;-66
2022/06/12 05:22:28;;;;;;;3.58;3.28;;;;;;;18.17;62.94;99489.16;2618770;54;20043;-65
2022/06/12 05:24:58;;;;;;;5.28;4.55;;;;;;;18.42;62.21;99479.13;2618435;54;20038;-67
2022/06/12 05:27:28;;;;;;;5.57;3.88;;;;;;;18.53;61.69;99482.88;2618464;54;20482;-65
2022/06/12 05:29:57;;;;;;;3.92;3.53;;;;;;;18.61;61.34;99484.44;2619070;54;20030;-65
2022/06/12 05:32:27;;;;;;;4.97;4.18;;;;;;;18.71;61.67;99490.91;2619339;39;20421;-65
2022/06/12 05:34:57;;;;;;;4.10;3.75;;;;;;;18.95;61.44;99482.94;2619308;39;20419;-65
2022/06/12 05:37:29;;;;;;;3.85;3.05;;;;;;;19.11;60.36;99481.44;2618976;54;20049;-66
2022/06/12 05:39:58;;;;;;;9.27;5.90;;;;;;;19.17;59.67;99485.84;2618694;54;20573;-65
2022/06/12 05:42:28;;;;;;;4.53;3.47;;;;;;;19.16;60.24;99474.31;2619241;54;20027;-66
2022/06/12 05:44:58;;;;;;;4.93;3.95;;;;;;;19.27;59.97;99472.72;2619290;54;20603;-65
2022/06/12 05:47:27;;;;;;;4.15;3.75;;;;;;;19.30;60.28;99481.06;2619217;54;20121;-66
2022/06/12 05:49:57;;;;;;;4.47;3.40;;;;;;;19.39;59.87;99476.22;2619455;54;20039;-65
2022/06/12 05:52:29;;;;;;;4.22;3.38;;;;;;;19.40;60.23;99475.16;2619466;54;20553;-65
2022/06/12 05:54:59;;;;;;;3.58;3.17;;;;;;;19.46;60.35;99476.06;2619334;54;20030;-65
2022/06/12 05:57:28;;;;;;;4.93;3.65;;;;;;;19.51;60.19;99478.84;2619090;46;20053;-65
2022/06/12 05:59:58;;;;;;;4.78;3.55;;;;;;;19.52;60.19;99491.25;2619394;54;20046;-65
2022/06/12 06:02:27;;;;;;;5.05;3.38;;;;;;;19.61;60.04;99483.66;2619437;54;20029;-65
2022/06/12 06:04:57;;;;;;;6.25;3.90;;;;;;;19.67;60.39;99480.03;2619991;54;20038;-65
2022/06/12 06:07:30;;;;;;;5.20;3.85;;;;;;;19.68;60.39;99477.16;2619948;54;20081;-65
2022/06/12 06:10:00;;;;;;;3.70;3.33;;;;;;;19.81;60.32;99472.56;2620061;54;20046;-66
2022/06/12 06:12:29;;;;;;;5.50;3.75;;;;;;;19.84;59.92;99478.28;2622220;39;20326;-66
2022/06/12 06:14:59;;;;;;;4.80;3.70;;;;;;;19.93;60.36;99476.88;2621162;54;20022;-67
2022/06/12 06:17:28;;;;;;;4.15;3.30;;;;;;;19.98;60.23;99481.50;2620429;54;20034;-65
2022/06/12 06:19:58;;;;;;;5.25;3.63;;;;;;;20.09;59.99;99479.88;2620382;54;20562;-66
2022/06/12 06:22:30;;;;;;;3.65;3.17;;;;;;;20.15;60.37;99476.22;2621258;54;20034;-67
2022/06/12 06:25:00;;;;;;;7.00;3.05;;;;;;;20.13;59.95;99473.78;2621355;54;20038;-64
2022/06/12 06:27:29;;;;;;;3.75;3.30;;;;;;;20.18;59.81;99473.88;2621221;54;20023;-67
2022/06/12 06:29:59;;;;;;;4.82;3.08;;;;;;;20.28;59.73;99476.72;2621612;54;20030;-65
2022/06/12 06:32:29;;;;;;;5.75;3.40;;;;;;;20.38;59.63;99475.31;2620937;54;20545;-65
2022/06/12 06:34:58;;;;;;;5.38;2.90;;;;;;;20.51;59.30;99462.44;2619426;54;20046;-65
2022/06/12 06:37:30;;;;;;;5.20;2.97;;;;;;;20.69;58.66;99466.75;2619173;54;20046;-65
2022/06/12 06:40:01;;;;;;;5.25;3.15;;;;;;;20.72;57.84;99470.84;2619003;54;20046;-64
2022/06/12 06:42:30;;;;;;;4.75;2.97;;;;;;;20.73;58.03;99480.53;2619058;54;20038;-67
2022/06/12 06:47:42;;;;;;;3.50;2.42;;;;;;;20.94;57.08;99481.69;2619120;54;20434;-65
2022/06/12 06:50:16;;;;;;;6.45;2.58;;;;;;;20.91;57.15;99483.00;2619123;54;20057;-65
2022/06/12 06:52:48;;;;;;;;;;;;;;;20.87;57.21;99486.44;2619041;54;20034;-64
2022/06/12 22:02:36;;;;;;;3.70;1.58;;;;;;;21.21;39.81;99086.66;2589201;46;20001;-64
2022/06/12 22:05:06;;;;;;;5.18;1.70;;;;;;;21.14;39.97;99096.78;2619187;54;20037;-64
2022/06/12 22:07:36;;;;;;;2.72;1.42;;;;;;;21.11;39.91;99098.13;2620264;54;20023;-64
2022/06/12 22:10:07;;;;;;;3.25;1.15;;;;;;;21.09;40.16;99102.94;2621726;54;20041;-65
2022/06/12 22:12:38;;;;;;;2.47;1.50;;;;;;;21.04;40.38;99108.25;2621938;54;20050;-65
2022/06/12 22:15:11;;;;;;;2.97;1.48;;;;;;;21.03;40.63;99095.91;2622902;54;20041;-64
2022/06/12 22:17:44;;;;;;;2.45;1.30;;;;;;;20.99;40.88;99100.97;2622150;54;20038;-64
2022/06/12 22:20:15;;;;;;;5.30;1.30;;;;;;;20.84;40.58;99108.03;2622833;39;20443;-64
2022/06/12 22:22:45;;;;;;;4.18;1.77;;;;;;;20.81;41.00;99111.22;2622351;39;20703;-64
2022/06/12 22:25:17;;;;;;;3.83;1.27;;;;;;;20.72;41.56;99109.00;2622191;54;20576;-64
2022/06/12 22:27:48;;;;;;;4.57;1.30;;;;;;;20.73;41.40;99117.84;2622173;39;20440;-63
2022/06/12 22:30:18;;;;;;;5.90;1.70;;;;;;;20.62;41.42;99125.00;2620617;39;20664;-64
2022/06/12 22:32:50;;;;;;;5.22;1.45;;;;;;;20.50;41.77;99114.38;2621545;54;20849;-64
2022/06/12 22:35:20;;;;;;;4.70;1.38;;;;;;;20.40;41.93;99132.19;2621603;54;20030;-63
2022/06/12 22:37:49;;;;;;;3.55;1.48;;;;;;;20.34;41.96;99128.63;2622478;54;20565;-64
2022/06/12 22:40:19;;;;;;;3.65;1.50;;;;;;;20.37;42.44;99130.81;2622656;54;20113;-63
2022/06/12 22:42:50;;;;;;;3.80;1.33;;;;;;;20.38;42.13;99127.06;2622971;39;20416;-64
2022/06/12 22:45:20;;;;;;;2.10;1.20;;;;;;;20.39;42.39;99128.69;2623431;39;20403;-63
2022/06/12 22:47:52;;;;;;;3.45;1.20;;;;;;;20.39;42.22;99138.63;2622641;54;20057;-65
2022/06/12 22:50:22;;;;;;;3.72;1.60;;;;;;;20.37;42.22;99133.50;2622450;54;20027;-64
2022/06/12 22:52:52;;;;;;;3.65;1.30;;;;;;;20.28;42.13;99135.78;2622375;54;20026;-64
2022/06/12 22:55:22;;;;;;;3.13;1.40;;;;;;;20.28;42.30;99134.97;2622630;54;20566;-63
2022/06/12 22:57:51;;;;;;;4.57;1.88;;;;;;;20.29;42.19;99139.31;2621721;54;20041;-65
2022/06/12 23:00:21;;;;;;;3.80;1.50;;;;;;;20.25;42.77;99136.31;2621838;54;20035;-65
2022/06/12 23:02:53;;;;;;;5.88;1.38;;;;;;;20.14;43.17;99134.53;2622203;54;20046;-64
2022/06/12 23:05:23;;;;;;;4.45;1.85;;;;;;;20.15;42.89;99138.03;2622503;54;20030;-64
2022/06/12 23:07:56;;;;;;;2.90;1.70;;;;;;;20.19;42.92;99142.66;2621853;54;20046;-64
2022/06/12 23:10:25;;;;;;;5.20;2.03;;;;;;;20.20;42.91;99133.53;2621877;54;20045;-66
2022/06/12 23:12:55;;;;;;;7.75;1.65;;;;;;;20.09;42.94;99137.16;2621742;39;20454;-64
2022/06/12 23:15:25;;;;;;;7.40;1.65;;;;;;;20.09;42.60;99141.72;2622932;54;20050;-64
2022/06/12 23:17:57;;;;;;;2.95;1.40;;;;;;;20.03;43.17;99149.66;2622976;54;20030;-65
2022/06/12 23:20:27;;;;;;;4.70;1.73;;;;;;;19.95;43.44;99151.94;2625932;39;20363;-64
2022/06/12 23:25:39;;;;;;;4.75;1.52;;;;;;;19.90;44.21;99150.00;2619594;54;20043;-64
2022/06/12 23:28:08;;;;;;;7.88;2.25;;;;;;;19.83;44.00;99154.72;2619229;54;20034;-64
2022/06/12 23:30:39;;;;;;;4.68;1.33;;;;;;;19.73;44.22;99163.41;2619865;54;20026;-64
2022/06/12 23:33:12;;;;;;;4.93;1.48;;;;;;;19.68;45.13;99159.84;2619591;54;20041;-65
2022/06/12 23:35:43;;;;;;;5.38;1.67;;;;;;;19.61;44.77;99161.84;2619296;39;20463;-62
2022/06/12 23:38:13;;;;;;;4.75;1.23;;;;;;;19.51;45.28;99162.47;2619496;54;20077;-63
2022/06/12 23:40:42;;;;;;;7.72;2.00;;;;;;;19.42;45.58;99159.38;2618318;54;20586;-64
2022/06/12 23:43:13;;;;;;;6.53;1.60;;;;;;;19.37;46.08;99159.28;2618447;54;20598;-64
2022/06/12 23:45:43;;;;;;;6.25;1.45;;;;;;;19.33;45.63;99168.06;2618510;54;20033;-65
2022/06/12 23:48:20;;;;;;;5.18;1.90;;;;;;;19.35;46.17;99166.75;2619715;54;20082;-63
2022/06/12 23:50:50;;;;;;;4.47;1.98;;;;;;;19.29;45.90;99160.47;2622418;54;20050;-62
2022/06/12 23:53:19;;;;;;;7.07;1.75;;;;;;;19.34;46.20;99161.63;2621937;54;20074;-63
2022/06/12 23:55:49;;;;;;;7.07;1.50;;;;;;;19.25;46.07;99163.88;2618749;54;20027;-63
2022/06/12 23:58:18;;;;;;;3.10;1.55;;;;;;;19.18;47.12;99165.88;2618354;54;20089;-63
